Dayton, Nevada
Current Conditions -  °F | °C
As of 8:15 AM on Saturday 25 Oct 2014 (Local Time) from KCXP Reporting Station
Clear Clear  
Wind Chill: 57°   Ceiling: Unl
Heat Index: 57°   Visibility: 10mi
Dew Point: 27°   Wind: 12mph
Humidity: 31%   Direction: 210°SSW
Pressure: 29.97"   Gusts: 21mph
Location:  39.24°N, 119.6°W
Report Text: KCXP 251515Z AUTO 21010G18KT 10SM CLR 14/M03 A2997 RMK AO2
Loading
Personal Weather Stations






























Interactive Weather Map
Tropical Storm Tracking
New forecast layout! Learn more

10-Day Weather Forecast

Advertisements
Track Severe Weather on mobile